首页
METAR-TAF:

METAR-TAF

机场 :

本德, 俄勒冈州, 美国

纬度: 44-05-40N, 经度: 121-12-00W, 海拔: 1055米

当前天气观测

该预报发布于17分钟前的02:35 UTC
静风
温度 1°C
湿度 55%
气压 1010 hPa
散云层高于3900英尺
多云层高于4700英尺

METAR: KBDN 170235Z AUTO 00000KT SCT039 BKN047 01/M07 A2982 RMK AO2

时间: 18:52 (02:52 UTC)

预报

该预报发布于2小时和33分钟前的00:19 UTC
预报有效从17日的 00点(UTC)到 17日的 24点(UTC)
风速9节,风向西南
能見度: 9.7公里
散云层高于3000英尺
阴天层高于7000英尺
小阵雪
从 17日的 0300点(UTC)
风速6节,风向西
能見度: 9.7公里
散云层高于2500英尺
阴天层高于3500英尺
小阵雪
从 17日的 1800点(UTC)
风速5节,风向
能見度: 10公里
散云层高于4000英尺
多云层高于6000英尺

TAF: KBDN 170019Z 1700/1724 22009KT 6SM -SHSN SCT030 OVC070 FM170300 26006KT 6SM -SHSN SCT025 OVC035 FM171800 35005KT P6SM SCT040 BKN060

超过4000个机场的气象观测和天气预报(METAR&TAF报告)。

可查询的气象台以黄色和红色小点在地图上表示。

将鼠标移到小点上方,可查看气象台名称。

然后点击查看天气观测和预报。

如需切换地图:点击带黑十字的绿色按钮放大地图;点击带横线的绿色按钮缩小地图;或者点击绿色箭头查看邻近地区的地图。


METAR-TAF: